createdAt,value
2022-08-22T00:00:17.913Z,85.89
2022-08-22T00:02:42.590Z,75.77
2022-08-22T00:02:58.482Z,74.08
2022-08-22T00:03:12.380Z,82.73
2022-08-22T00:03:15.268Z,82.25
2022-08-22T00:06:06.568Z,85.32
2022-08-22T00:09:06.820Z,84.86
2022-08-22T00:11:47.687Z,85.18
2022-08-22T00:14:32.573Z,85.01
2022-08-22T00:17:23.982Z,84.14
2022-08-22T00:20:13.424Z,83.69
2022-08-22T00:22:53.456Z,83.83
2022-08-22T00:25:40.411Z,84.47
2022-08-22T00:28:17.710Z,83.62
2022-08-22T00:30:54.793Z,83.23
2022-08-22T00:33:48.738Z,83.39
2022-08-22T00:36:47.875Z,83.15
2022-08-22T00:39:24.884Z,83.06
2022-08-22T00:42:30.300Z,83.43
2022-08-22T00:45:29.316Z,85.26
2022-08-22T00:48:34.515Z,84.68
2022-08-22T00:51:32.881Z,83.90
2022-08-22T00:54:17.581Z,84.49
2022-08-22T00:57:03.647Z,84.49
2022-08-22T00:59:53.095Z,84.76
2022-08-22T01:02:39.652Z,83.90
2022-08-22T01:05:25.919Z,84.16
2022-08-22T01:08:22.248Z,84.21
2022-08-22T01:11:07.925Z,83.95
2022-08-22T01:14:08.139Z,84.50
2022-08-22T01:17:08.211Z,87.07
2022-08-22T01:20:06.534Z,85.14
2022-08-22T01:23:06.538Z,84.72
2022-08-22T01:26:06.355Z,84.28
2022-08-22T01:28:56.607Z,85.07
2022-08-22T01:32:00.749Z,84.50
2022-08-22T01:34:51.287Z,85.17
2022-08-22T01:37:43.414Z,86.18
2022-08-22T01:40:53.365Z,85.54
2022-08-22T01:44:00.611Z,86.37
2022-08-22T01:46:52.167Z,86.83
2022-08-22T01:49:44.695Z,88.54
2022-08-22T01:52:39.440Z,88.01
2022-08-22T01:55:14.496Z,89.15
2022-08-22T01:57:59.162Z,88.09
2022-08-22T02:00:50.381Z,88.83
2022-08-22T02:03:33.389Z,89.06
2022-08-22T02:06:14.480Z,87.61
2022-08-22T02:09:06.941Z,87.07
2022-08-22T02:11:54.912Z,87.33
2022-08-22T02:14:45.204Z,86.90
2022-08-22T02:17:29.900Z,87.04
2022-08-22T02:20:20.245Z,86.74
2022-08-22T02:22:58.539Z,88.06
2022-08-22T02:25:33.413Z,87.33
2022-08-22T02:28:10.907Z,86.63
2022-08-22T02:30:55.183Z,86.42
2022-08-22T02:33:34.054Z,86.13
2022-08-22T02:36:15.374Z,86.20
2022-08-22T02:39:13.862Z,86.15
2022-08-22T02:41:57.615Z,86.12
2022-08-22T02:44:35.813Z,86.22
2022-08-22T02:47:21.266Z,89.83
2022-08-22T02:50:16.268Z,89.97
2022-08-22T02:53:21.172Z,90.20
2022-08-22T02:56:17.096Z,89.50
2022-08-22T02:58:54.138Z,92.99
2022-08-22T03:01:40.790Z,92.81
2022-08-22T03:04:23.737Z,94.42
2022-08-22T03:07:07.913Z,94.21
2022-08-22T03:09:52.782Z,93.00
2022-08-22T03:12:29.872Z,92.31
2022-08-22T03:15:07.693Z,93.81
2022-08-22T03:17:52.616Z,95.12
2022-08-22T03:20:53.989Z,93.40
2022-08-22T03:23:43.752Z,94.43
2022-08-22T03:26:18.347Z,92.56
2022-08-22T03:28:58.941Z,93.02
2022-08-22T03:31:31.300Z,94.08
2022-08-22T03:34:24.693Z,93.73
2022-08-22T03:37:24.459Z,93.08
2022-08-22T03:40:06.225Z,92.37
2022-08-22T03:43:02.821Z,91.54
2022-08-22T03:46:05.093Z,91.67
2022-08-22T03:49:02.596Z,92.41
2022-08-22T03:52:03.038Z,91.23
2022-08-22T03:54:56.731Z,91.07
2022-08-22T03:57:55.791Z,91.37
2022-08-22T04:00:55.975Z,92.45
2022-08-22T04:03:56.083Z,93.18
2022-08-22T04:07:04.081Z,93.06
2022-08-22T04:09:56.633Z,94.04
2022-08-22T04:12:56.153Z,94.40
2022-08-22T04:15:44.239Z,93.99
2022-08-22T04:18:47.212Z,94.02
2022-08-22T04:21:49.189Z,93.26
2022-08-22T04:24:52.238Z,92.39
2022-08-22T04:27:43.569Z,91.62
2022-08-22T04:30:31.334Z,91.00
2022-08-22T04:33:09.091Z,90.73
2022-08-22T04:36:07.972Z,90.21
2022-08-22T04:38:51.709Z,89.83
2022-08-22T04:41:41.710Z,89.57
2022-08-22T04:44:17.906Z,89.18
2022-08-22T04:46:56.316Z,89.25
2022-08-22T04:49:34.766Z,89.20
2022-08-22T04:52:15.484Z,89.09
2022-08-22T04:55:10.971Z,88.97
2022-08-22T04:57:54.268Z,88.80
2022-08-22T05:00:24.691Z,88.60
2022-08-22T05:02:57.900Z,88.53
2022-08-22T05:05:35.787Z,88.47
2022-08-22T05:08:11.568Z,88.01
2022-08-22T05:10:43.968Z,87.80
2022-08-22T05:13:21.448Z,87.59
2022-08-22T05:15:56.392Z,87.50
2022-08-22T05:18:30.382Z,87.42
2022-08-22T05:21:02.592Z,87.25
2022-08-22T05:24:01.456Z,86.71
2022-08-22T05:26:38.204Z,86.81
2022-08-22T05:56:19.203Z,82.70
2022-08-22T05:58:59.971Z,82.09
2022-08-22T06:01:40.114Z,81.90
2022-08-22T06:04:25.763Z,81.78
2022-08-22T06:07:01.041Z,81.89
2022-08-22T06:10:11.119Z,81.62
2022-08-22T06:12:55.675Z,81.09
2022-08-22T06:15:44.001Z,80.96
2022-08-22T06:18:22.872Z,80.51
2022-08-22T06:21:06.854Z,78.97
2022-08-22T06:23:51.035Z,78.69
2022-08-22T06:26:21.486Z,79.08
2022-08-22T06:31:22.672Z,77.04
2022-08-22T06:34:07.689Z,76.82
2022-08-22T06:36:40.615Z,76.82
2022-08-22T06:39:22.821Z,77.29
2022-08-22T06:42:02.466Z,76.75
2022-08-22T06:45:33.463Z,75.78
2022-08-22T06:49:29.789Z,75.76
2022-08-22T06:56:16.156Z,75.22
2022-08-22T06:59:29.962Z,75.22
2022-08-22T07:02:43.132Z,75.08
2022-08-22T07:05:57.682Z,74.86
2022-08-22T07:13:21.951Z,73.82
2022-08-22T07:16:41.371Z,72.32
2022-08-22T07:24:05.294Z,72.35
2022-08-22T07:30:41.067Z,70.81
2022-08-22T07:37:38.148Z,71.35
2022-08-22T07:40:42.924Z,68.53
2022-08-22T07:47:34.949Z,67.12
2022-08-22T07:50:28.621Z,67.24
2022-08-22T07:53:20.580Z,66.55
2022-08-22T07:56:52.761Z,66.69
2022-08-22T07:59:58.597Z,66.61
2022-08-22T08:03:31.878Z,67.81
2022-08-22T08:06:48.851Z,68.44
2022-08-22T08:09:52.384Z,68.54
2022-08-22T08:13:02.203Z,67.55
2022-08-22T08:16:03.475Z,67.30
2022-08-22T08:19:11.404Z,67.46
2022-08-22T08:22:19.101Z,67.95
2022-08-22T08:25:33.236Z,66.91
2022-08-22T08:28:52.913Z,67.26
2022-08-22T08:32:10.877Z,64.81
2022-08-22T08:35:30.426Z,64.15
2022-08-22T08:38:24.357Z,63.64
2022-08-22T08:41:37.109Z,64.70
2022-08-22T08:44:56.092Z,64.10
2022-08-22T08:49:07.469Z,63.75
2022-08-22T08:52:10.099Z,62.11
2022-08-22T08:55:22.056Z,62.19
2022-08-22T08:58:17.787Z,63.55
2022-08-22T09:01:08.283Z,64.31
2022-08-22T09:04:05.213Z,64.29
2022-08-22T09:07:09.350Z,63.86
2022-08-22T09:10:06.718Z,63.61
2022-08-22T09:13:11.503Z,62.03
2022-08-22T09:16:16.105Z,62.54
2022-08-22T09:19:09.154Z,62.79
2022-08-22T09:22:14.186Z,61.12
2022-08-22T09:25:19.065Z,61.55
2022-08-22T09:28:22.732Z,62.08
2022-08-22T09:31:47.898Z,61.25
2022-08-22T09:34:29.494Z,61.51
2022-08-22T09:37:21.815Z,61.05
2022-08-22T09:40:01.439Z,61.41
2022-08-22T09:42:56.688Z,60.33
2022-08-22T09:46:31.537Z,60.35
2022-08-22T09:49:16.478Z,58.21
2022-08-22T09:52:35.701Z,57.03
2022-08-22T09:55:40.157Z,56.15
2022-08-22T09:58:23.680Z,54.79
2022-08-22T10:01:12.217Z,52.93
2022-08-22T10:04:22.546Z,53.69
2022-08-22T10:07:34.026Z,53.05
2022-08-22T10:10:36.310Z,52.97
2022-08-22T10:13:37.536Z,52.78
2022-08-22T10:16:24.642Z,51.79
2022-08-22T10:19:35.714Z,50.29
2022-08-22T10:22:41.697Z,48.74
2022-08-22T10:25:51.776Z,49.16
2022-08-22T10:28:49.745Z,49.63
2022-08-22T10:31:59.267Z,50.25
2022-08-22T10:35:20.983Z,48.55
2022-08-22T10:41:47.568Z,48.79
2022-08-22T10:44:24.247Z,48.02
2022-08-22T10:47:05.526Z,47.40
2022-08-22T10:49:53.210Z,46.88
2022-08-22T10:53:11.981Z,47.13
2022-08-22T11:21:28.881Z,42.28
2022-08-22T12:00:23.400Z,33.72
2022-08-22T12:04:30.712Z,33.55
2022-08-22T12:04:48.403Z,34.40
2022-08-22T12:11:19.258Z,30.62
2022-08-22T12:14:05.160Z,31.13
2022-08-22T12:17:33.532Z,30.90
2022-08-22T12:24:06.115Z,32.15
2022-08-22T12:24:54.496Z,29.54
2022-08-22T12:28:05.690Z,28.56
2022-08-22T12:31:10.921Z,28.45
2022-08-22T12:34:04.216Z,27.75
2022-08-22T12:37:02.060Z,27.34
2022-08-22T12:40:03.534Z,27.36
2022-08-22T12:43:15.281Z,26.23
2022-08-22T12:46:17.217Z,26.36
2022-08-22T12:49:12.324Z,26.88
2022-08-22T12:52:30.124Z,27.16
2022-08-22T12:55:26.743Z,27.14
2022-08-22T12:58:35.460Z,27.80
2022-08-22T13:01:18.821Z,27.72
2022-08-22T13:04:32.803Z,28.20
2022-08-22T13:09:03.870Z,27.64
2022-08-22T13:11:09.991Z,28.37
2022-08-22T13:17:31.358Z,29.75
2022-08-22T13:20:10.350Z,30.11
2022-08-22T13:26:37.694Z,29.56
2022-08-22T13:27:07.420Z,28.14
2022-08-22T13:30:45.622Z,27.83
2022-08-22T13:34:19.561Z,26.72
2022-08-22T13:38:01.251Z,26.76
2022-08-22T13:41:19.784Z,26.61
2022-08-22T13:45:06.758Z,25.77
2022-08-22T13:48:56.713Z,25.41
2022-08-22T13:55:51.045Z,24.96
2022-08-22T13:59:50.331Z,24.72
2022-08-22T14:03:29.680Z,24.68
2022-08-22T14:07:03.086Z,25.46
2022-08-22T14:10:18.155Z,26.43
2022-08-22T14:13:28.888Z,27.07
2022-08-22T14:21:11.163Z,27.12
2022-08-22T14:25:08.812Z,26.25
2022-08-22T14:29:22.930Z,25.69
2022-08-22T14:32:41.833Z,25.45
2022-08-22T14:35:52.877Z,24.88
2022-08-22T14:40:53.707Z,24.61
2022-08-22T14:43:40.391Z,24.21
2022-08-22T14:47:08.326Z,23.93
2022-08-22T14:51:31.348Z,22.57
2022-08-22T14:54:47.954Z,21.60
2022-08-22T14:57:20.490Z,20.80
2022-08-22T15:00:37.771Z,20.53
2022-08-22T15:03:35.907Z,22.06
2022-08-22T15:06:51.029Z,24.68
2022-08-22T15:10:07.621Z,25.75
2022-08-22T15:13:10.447Z,26.77
2022-08-22T15:16:30.172Z,28.21
2022-08-22T15:19:52.138Z,29.78
2022-08-22T15:23:09.809Z,30.85
2022-08-22T15:26:13.107Z,31.65
2022-08-22T15:29:22.194Z,32.71
2022-08-22T15:32:30.967Z,33.52
2022-08-22T15:35:39.048Z,34.92
2022-08-22T15:38:39.170Z,36.12
2022-08-22T15:42:20.754Z,36.85
2022-08-22T15:48:32.877Z,39.29
2022-08-22T15:51:10.248Z,40.33
2022-08-22T15:54:03.676Z,40.56
2022-08-22T15:57:15.325Z,40.20
2022-08-22T15:59:57.378Z,40.03
2022-08-22T16:02:35.677Z,40.22
2022-08-22T16:05:27.425Z,40.83
2022-08-22T16:08:06.378Z,41.40
2022-08-22T16:10:43.243Z,41.87
2022-08-22T16:13:34.746Z,42.55
2022-08-22T16:16:31.443Z,43.49
2022-08-22T16:19:17.301Z,43.51
2022-08-22T16:22:08.012Z,42.76
2022-08-22T16:24:57.388Z,42.92
2022-08-22T16:27:27.514Z,43.25
2022-08-22T16:30:05.877Z,43.18
2022-08-22T16:32:35.730Z,43.05
2022-08-22T16:35:04.263Z,43.27
2022-08-22T16:37:48.017Z,43.48
2022-08-22T16:40:23.079Z,43.95
2022-08-22T16:43:14.034Z,44.28
2022-08-22T16:45:45.854Z,44.69
2022-08-22T16:48:30.154Z,45.41
2022-08-22T16:51:14.830Z,46.05
2022-08-22T16:54:12.985Z,46.71
2022-08-22T16:57:09.159Z,47.09
2022-08-22T16:59:56.548Z,47.29
2022-08-22T17:02:52.542Z,47.51
2022-08-22T17:05:38.870Z,48.57
2022-08-22T17:08:35.866Z,49.19
2022-08-22T17:11:37.088Z,49.66
2022-08-22T17:14:37.193Z,50.73
2022-08-22T17:17:42.127Z,51.18
2022-08-22T17:20:47.693Z,51.02
2022-08-22T17:23:37.990Z,51.32
2022-08-22T17:26:27.168Z,51.22
2022-08-22T17:29:39.147Z,50.89
2022-08-22T17:32:34.803Z,50.70
2022-08-22T17:35:18.068Z,53.08
2022-08-22T17:38:22.274Z,53.89
2022-08-22T17:41:22.168Z,54.12
2022-08-22T17:44:15.632Z,54.06
2022-08-22T17:47:09.278Z,54.48
2022-08-22T17:50:09.171Z,53.92
2022-08-22T17:52:45.734Z,54.58
2022-08-22T17:55:18.072Z,54.59
2022-08-22T17:57:56.018Z,54.88
2022-08-22T18:00:47.529Z,57.19
2022-08-22T18:03:26.747Z,57.11
2022-08-22T18:06:09.244Z,56.38
2022-08-22T18:11:45.717Z,57.28
2022-08-22T18:14:36.675Z,59.66
2022-08-22T18:17:18.557Z,59.34
2022-08-22T18:20:02.238Z,60.27
2022-08-22T18:22:41.104Z,60.67
2022-08-22T18:25:30.602Z,62.12
2022-08-22T18:28:06.775Z,63.53
2022-08-22T18:30:49.921Z,62.77
2022-08-22T18:33:37.510Z,63.01
2022-08-22T18:36:18.251Z,63.20
2022-08-22T18:39:03.533Z,62.96
2022-08-22T18:41:43.151Z,64.25
2022-08-22T18:44:17.889Z,64.44
2022-08-22T18:46:50.967Z,64.98
2022-08-22T18:49:45.099Z,65.91
2022-08-22T18:52:20.856Z,65.85
2022-08-22T18:55:15.531Z,66.95
2022-08-22T18:58:13.537Z,67.18
2022-08-22T19:01:00.890Z,69.09
2022-08-22T19:03:54.077Z,70.26
2022-08-22T19:07:20.891Z,70.32
2022-08-22T19:10:34.505Z,70.58
2022-08-22T19:17:16.008Z,69.47
2022-08-22T19:20:40.604Z,69.48
2022-08-22T19:23:49.019Z,68.50
2022-08-22T19:27:02.048Z,68.65
2022-08-22T19:30:08.034Z,68.66
2022-08-22T19:33:34.117Z,69.09
2022-08-22T19:36:43.462Z,69.26
2022-08-22T19:40:06.835Z,68.98
2022-08-22T19:46:32.024Z,68.98
2022-08-22T19:49:38.011Z,69.17
2022-08-22T19:53:12.008Z,70.31
2022-08-22T19:56:52.678Z,70.05
2022-08-22T20:03:05.985Z,72.44
2022-08-22T20:06:33.499Z,72.72
2022-08-22T20:09:33.961Z,72.79
2022-08-22T20:12:36.098Z,72.52
2022-08-22T20:15:39.428Z,72.41
2022-08-22T20:18:12.406Z,74.79
2022-08-22T20:21:21.448Z,73.38
2022-08-22T20:24:23.031Z,73.09
2022-08-22T20:27:34.032Z,72.60
2022-08-22T20:30:48.951Z,72.29
2022-08-22T20:33:58.060Z,72.08
2022-08-22T20:40:54.801Z,72.18
2022-08-22T20:47:43.600Z,71.94
2022-08-22T20:50:57.945Z,72.01
2022-08-22T20:57:31.689Z,72.20
2022-08-22T21:00:47.340Z,72.12
2022-08-22T21:04:00.011Z,72.74
2022-08-22T21:10:43.163Z,72.87
2022-08-22T21:13:37.980Z,73.04
2022-08-22T21:16:50.017Z,73.25
2022-08-22T21:20:20.044Z,73.23
2022-08-22T21:23:33.007Z,73.33
2022-08-22T21:26:42.987Z,73.33
2022-08-22T21:29:56.051Z,73.39
2022-08-22T21:33:08.005Z,73.62
2022-08-22T21:36:25.095Z,73.58
2022-08-22T21:39:37.470Z,75.09
2022-08-22T21:42:49.031Z,74.30
2022-08-22T21:45:58.034Z,74.73
2022-08-22T21:49:20.847Z,74.74
2022-08-22T21:52:36.050Z,74.93
2022-08-22T21:55:44.076Z,74.94
2022-08-22T21:58:54.058Z,75.00
2022-08-22T22:05:29.073Z,75.59
2022-08-22T22:08:42.032Z,75.66
2022-08-22T22:11:53.081Z,77.03
2022-08-22T22:15:12.883Z,76.16
2022-08-22T22:18:32.384Z,76.07
2022-08-22T22:21:46.985Z,76.11
2022-08-22T22:25:03.494Z,76.28
2022-08-22T22:28:24.286Z,76.25
2022-08-22T22:31:30.014Z,76.39
2022-08-22T22:34:41.964Z,76.78
2022-08-22T22:37:53.004Z,77.03
2022-08-22T22:40:53.017Z,77.42
2022-08-22T22:44:29.707Z,77.67
2022-08-22T22:47:43.116Z,78.25
2022-08-22T22:51:05.697Z,77.58
2022-08-22T22:54:17.967Z,77.38
2022-08-22T22:57:29.989Z,77.26
2022-08-22T23:00:42.187Z,77.80
2022-08-22T23:03:53.953Z,77.56
2022-08-22T23:07:25.281Z,77.48
2022-08-22T23:10:36.046Z,77.12
2022-08-22T23:13:45.076Z,77.65
2022-08-22T23:16:54.020Z,78.00
2022-08-22T23:20:23.970Z,78.40
2022-08-22T23:23:37.676Z,78.43
2022-08-22T23:26:43.964Z,79.01
2022-08-22T23:29:56.082Z,79.94
2022-08-22T23:36:34.214Z,79.74
2022-08-22T23:39:52.082Z,80.00
2022-08-22T23:43:02.026Z,79.84
2022-08-22T23:46:24.014Z,79.98
2022-08-22T23:49:37.044Z,79.86
2022-08-22T23:53:11.901Z,79.94
2022-08-22T23:56:19.274Z,79.84
